Time;durP1;ratioP1;P1;durP2;ratioP2;P2;SDS_P1;SDS_P2;PMS_P1;PMS_P2;Temp;Humidity;BMP_temperature;BMP_pressure;BME280_temperature;BME280_humidity;BME280_pressure;Samples;Min_cycle;Max_cycle;Signal;HPM_P1;HPM_P2
2023/02/07 03:02:58;;;;;;;19.07;17.17;;;-1.50;99.90;;;;;;4941232;23;20491;-78
2023/02/07 03:05:42;;;;;;;19.77;17.93;;;-1.50;99.90;;;;;;4921723;29;20478;-76
2023/02/07 03:08:25;;;;;;;20.10;18.20;;;-1.60;99.90;;;;;;4931083;29;20443;-77
2023/02/07 03:11:00;;;;;;;19.90;17.93;;;-1.60;99.90;;;;;;4928270;29;20505;-77
2023/02/07 03:13:32;;;;;;;20.33;18.53;;;-1.60;99.90;;;;;;4926449;29;20447;-77
2023/02/07 03:16:07;;;;;;;19.90;18.10;;;-1.60;99.90;;;;;;4925118;29;20995;-77
2023/02/07 03:18:45;;;;;;;19.77;17.83;;;-1.60;99.90;;;;;;4920205;29;20452;-77
2023/02/07 03:21:18;;;;;;;20.80;18.80;;;-1.70;99.90;;;;;;4927519;29;20523;-77
2023/02/07 03:23:47;;;;;;;19.90;18.07;;;-1.70;99.90;;;;;;4925500;29;20464;-77
2023/02/07 03:26:15;;;;;;;20.80;18.87;;;-1.70;99.90;;;;;;4928879;29;20480;-77
2023/02/07 03:28:43;;;;;;;20.43;18.50;;;-1.60;99.90;;;;;;4929214;29;20439;-77
2023/02/07 03:31:14;;;;;;;20.63;18.77;;;-1.60;99.90;;;;;;4928394;29;20475;-78
2023/02/07 03:33:46;;;;;;;19.57;17.87;;;-1.70;99.90;;;;;;4926218;29;20463;-77
2023/02/07 03:36:17;;;;;;;21.07;18.97;;;-1.60;99.90;;;;;;4929729;29;20440;-77
2023/02/07 03:38:44;;;;;;;19.73;17.93;;;-1.70;99.90;;;;;;4932627;29;20507;-77
2023/02/07 03:41:17;;;;;;;20.57;18.63;;;-1.70;99.90;;;;;;4934857;29;20493;-82
2023/02/07 03:43:44;;;;;;;21.50;19.50;;;-1.60;99.90;;;;;;4922617;29;20430;-76
2023/02/07 03:46:11;;;;;;;20.83;18.93;;;-1.60;99.90;;;;;;4927412;29;20480;-76
2023/02/07 03:48:38;;;;;;;21.83;19.70;;;-1.60;99.90;;;;;;4928903;29;20436;-76
2023/02/07 03:51:07;;;;;;;20.57;18.77;;;-1.60;99.90;;;;;;4928493;29;20522;-81
2023/02/07 03:53:34;;;;;;;20.60;18.70;;;-1.60;99.90;;;;;;4923524;29;20894;-81
2023/02/07 03:56:01;;;;;;;21.73;19.53;;;-1.60;99.90;;;;;;4917884;29;20948;-81
2023/02/07 03:58:28;;;;;;;20.77;18.83;;;-1.60;99.90;;;;;;4906834;29;20459;-81
2023/02/07 04:00:54;;;;;;;21.17;19.23;;;-1.60;99.90;;;;;;4913041;29;20499;-81
2023/02/07 04:03:21;;;;;;;20.00;18.20;;;-1.70;99.90;;;;;;4918074;29;20808;-80
2023/02/07 04:05:48;;;;;;;20.57;18.77;;;-1.70;99.90;;;;;;4916203;29;20471;-81
2023/02/07 04:08:17;;;;;;;20.40;18.53;;;-1.80;99.90;;;;;;4932564;29;20543;-81
2023/02/07 04:10:43;;;;;;;19.87;18.13;;;-1.80;99.90;;;;;;4915728;29;20503;-81
2023/02/07 04:13:10;;;;;;;20.67;18.77;;;-1.80;99.90;;;;;;4916417;29;20448;-81
2023/02/07 04:15:37;;;;;;;21.33;19.43;;;-1.80;99.90;;;;;;4920260;29;20459;-80
2023/02/07 04:18:04;;;;;;;23.63;21.10;;;-1.90;99.90;;;;;;4925036;29;20451;-81
2023/02/07 04:20:31;;;;;;;22.40;20.33;;;-1.90;99.90;;;;;;4919536;29;20450;-81
2023/02/07 04:22:58;;;;;;;22.10;20.00;;;-1.90;99.90;;;;;;4924626;29;20440;-81
2023/02/07 04:25:26;;;;;;;21.60;19.53;;;-1.90;99.90;;;;;;4926890;29;20460;-81
2023/02/07 04:27:53;;;;;;;21.40;19.47;;;-2.00;99.90;;;;;;4925533;29;20499;-81
2023/02/07 04:30:20;;;;;;;22.03;19.73;;;-2.00;99.90;;;;;;4915902;29;20451;-81
2023/02/07 04:32:47;;;;;;;21.23;19.23;;;-2.00;99.90;;;;;;4918675;29;20456;-82
2023/02/07 04:35:14;;;;;;;23.20;19.83;;;-2.00;99.90;;;;;;4924978;29;20459;-80
2023/02/07 04:37:41;;;;;;;21.10;19.20;;;-2.00;99.90;;;;;;4925190;29;20455;-78
2023/02/07 04:40:08;;;;;;;21.67;19.67;;;-2.10;99.90;;;;;;4928561;29;20458;-77
2023/02/07 04:42:36;;;;;;;21.67;19.67;;;-2.10;99.90;;;;;;4925485;29;20499;-77
2023/02/07 04:45:03;;;;;;;22.70;20.63;;;-2.10;99.90;;;;;;4924296;29;20440;-77
2023/02/07 04:47:30;;;;;;;21.83;19.83;;;-2.20;99.90;;;;;;4931050;29;20858;-76
2023/02/07 04:49:57;;;;;;;22.37;20.17;;;-2.10;99.90;;;;;;4929226;29;20482;-76
2023/02/07 04:52:24;;;;;;;22.20;19.87;;;-2.20;99.90;;;;;;4925086;29;20469;-77
2023/02/07 04:54:51;;;;;;;21.63;19.63;;;-2.20;99.90;;;;;;4926040;29;20496;-76
2023/02/07 04:57:17;;;;;;;22.30;20.17;;;-2.20;99.90;;;;;;4931009;29;20499;-77
2023/02/07 04:59:45;;;;;;;22.03;20.00;;;-2.20;99.90;;;;;;4925341;29;20435;-76
2023/02/07 05:02:12;;;;;;;21.67;19.70;;;-2.20;99.90;;;;;;4928142;29;21063;-76
2023/02/07 05:04:39;;;;;;;22.07;19.73;;;-2.20;99.90;;;;;;4927302;29;20440;-76
2023/02/07 05:07:06;;;;;;;22.20;20.10;;;-2.30;99.90;;;;;;4928689;29;21081;-76
2023/02/07 05:09:33;;;;;;;23.00;20.60;;;-2.30;99.90;;;;;;4920923;29;20979;-77
2023/02/07 05:11:59;;;;;;;22.57;20.27;;;-2.30;99.90;;;;;;4928306;29;20479;-76
2023/02/07 05:14:26;;;;;;;21.73;19.73;;;-2.30;99.90;;;;;;4925141;29;20446;-77
2023/02/07 05:16:54;;;;;;;23.93;21.47;;;-2.40;99.90;;;;;;4925146;29;20768;-77
2023/02/07 05:19:21;;;;;;;22.37;20.27;;;-2.40;99.90;;;;;;4927606;29;20530;-78
2023/02/07 05:21:48;;;;;;;22.90;20.57;;;-2.50;99.90;;;;;;4926250;29;20512;-77
2023/02/07 05:24:15;;;;;;;21.67;19.67;;;-2.60;99.90;;;;;;4925261;29;20451;-76
2023/02/07 05:26:42;;;;;;;22.37;20.30;;;-2.60;99.90;;;;;;4923041;29;20495;-76
2023/02/07 05:29:09;;;;;;;23.03;20.80;;;-2.60;99.90;;;;;;4928553;29;20932;-77
2023/02/07 05:34:29;;;;;;;22.17;20.07;;;-2.50;99.90;;;;;;4900118;29;20526;-77
2023/02/07 05:36:56;;;;;;;22.10;20.10;;;-2.60;99.90;;;;;;4924251;29;20980;-76
2023/02/07 05:39:23;;;;;;;23.67;21.37;;;-2.60;99.90;;;;;;4926065;29;21003;-76
2023/02/07 05:41:50;;;;;;;21.73;19.87;;;-2.50;99.90;;;;;;4924795;29;20508;-76
2023/02/07 05:44:17;;;;;;;21.47;19.37;;;-2.40;99.90;;;;;;4924825;29;20554;-77
2023/02/07 05:46:44;;;;;;;21.40;19.53;;;-2.40;99.90;;;;;;4925856;29;20623;-76
2023/02/07 05:49:10;;;;;;;20.83;18.83;;;-2.30;99.90;;;;;;4927934;29;20480;-76
2023/02/07 05:51:39;;;;;;;21.37;19.37;;;-2.30;99.90;;;;;;4923355;29;20483;-77
2023/02/07 05:54:05;;;;;;;21.20;19.30;;;-2.30;99.90;;;;;;4923329;29;20467;-76
2023/02/07 05:56:32;;;;;;;22.60;20.50;;;-2.20;99.90;;;;;;4926688;29;20864;-77
2023/02/07 05:58:59;;;;;;;20.40;18.40;;;-2.20;99.90;;;;;;4924771;29;21043;-76
2023/02/07 06:01:26;;;;;;;21.70;19.87;;;-2.20;99.90;;;;;;4923670;29;20914;-77
2023/02/07 06:03:53;;;;;;;20.80;19.10;;;-2.20;99.90;;;;;;4924656;29;20503;-82
2023/02/07 06:06:19;;;;;;;21.60;19.80;;;-2.30;99.90;;;;;;4929690;29;20826;-82
2023/02/07 06:08:47;;;;;;;22.10;20.23;;;-2.30;99.90;;;;;;4929643;29;20483;-76
2023/02/07 06:11:14;;;;;;;24.07;21.77;;;-2.30;99.90;;;;;;4931083;29;20464;-76
2023/02/07 06:13:41;;;;;;;22.77;20.70;;;-2.40;99.90;;;;;;4925779;29;20491;-76
2023/02/07 06:16:09;;;;;;;22.30;20.20;;;-2.40;99.90;;;;;;4930251;29;20440;-76
2023/02/07 06:18:36;;;;;;;22.83;20.77;;;-2.40;99.90;;;;;;4931891;29;20450;-80
2023/02/07 06:21:03;;;;;;;23.83;21.60;;;-2.40;99.90;;;;;;4942530;29;20475;-80
2023/02/07 06:23:29;;;;;;;22.37;20.43;;;-2.50;99.90;;;;;;4930484;29;20471;-80
2023/02/07 06:25:57;;;;;;;22.07;20.03;;;-2.50;99.90;;;;;;4928134;29;20522;-79
2023/02/07 06:28:24;;;;;;;23.77;21.47;;;-2.50;99.90;;;;;;4929355;29;20528;-81
2023/02/07 06:30:52;;;;;;;22.63;20.63;;;-2.50;99.90;;;;;;4926420;29;20798;-80
2023/02/07 06:33:18;;;;;;;22.37;20.40;;;-2.50;99.90;;;;;;4922671;29;20515;-80
2023/02/07 06:35:46;;;;;;;23.23;21.10;;;-2.50;99.90;;;;;;4930577;29;20455;-78
2023/02/07 06:38:16;;;;;;;22.77;20.67;;;-2.60;99.90;;;;;;4926020;29;20769;-79
2023/02/07 06:40:45;;;;;;;22.40;20.23;;;-2.60;99.90;;;;;;4926178;29;20576;-79
2023/02/07 06:43:14;;;;;;;21.73;19.83;;;-2.60;99.90;;;;;;4935575;29;20438;-80
2023/02/07 06:45:40;;;;;;;22.53;20.43;;;-2.60;99.90;;;;;;4927786;29;20444;-80
2023/02/07 06:48:08;;;;;;;20.93;19.03;;;-2.70;99.90;;;;;;4926867;29;20501;-82
2023/02/07 06:50:35;;;;;;;21.60;19.70;;;-2.70;99.90;;;;;;4918095;29;20479;-81
2023/02/07 06:53:02;;;;;;;22.73;20.53;;;-2.70;99.90;;;;;;4925149;29;20452;-81
2023/02/07 06:55:29;;;;;;;22.17;20.17;;;-2.70;99.90;;;;;;4924029;29;20458;-81
2023/02/07 06:57:56;;;;;;;21.00;19.20;;;-2.60;99.90;;;;;;4924050;29;20732;-80
2023/02/07 07:00:25;;;;;;;21.07;19.27;;;-2.50;99.90;;;;;;4934655;29;20458;-80
2023/02/07 07:02:52;;;;;;;20.37;18.57;;;-2.50;99.90;;;;;;4914225;29;20447;-82
2023/02/07 07:05:19;;;;;;;21.07;19.20;;;-2.50;99.90;;;;;;4929253;29;20539;-81
2023/02/07 07:07:46;;;;;;;21.77;19.70;;;-2.50;99.90;;;;;;4925904;29;20467;-81
2023/02/07 07:10:13;;;;;;;21.57;19.63;;;-2.40;99.90;;;;;;4920937;29;20459;-81
2023/02/07 07:12:40;;;;;;;20.77;18.97;;;-2.40;99.90;;;;;;4928238;29;20574;-81
2023/02/07 07:15:08;;;;;;;19.80;18.03;;;-2.40;99.90;;;;;;4925680;29;21019;-80
2023/02/07 07:17:36;;;;;;;21.33;19.23;;;-2.30;99.90;;;;;;4927157;29;21015;-81
2023/02/07 07:20:06;;;;;;;20.33;18.33;;;-2.30;99.90;;;;;;4926582;29;21088;-83
2023/02/07 07:22:34;;;;;;;20.43;18.50;;;-2.40;99.90;;;;;;4925859;29;20527;-81
2023/02/07 07:25:01;;;;;;;24.13;21.63;;;-2.40;99.90;;;;;;4928263;29;20904;-81
2023/02/07 07:27:28;;;;;;;21.17;19.20;;;-2.30;99.90;;;;;;4927870;29;20507;-81
2023/02/07 07:29:54;;;;;;;21.47;19.57;;;-2.30;99.90;;;;;;4922071;29;20437;-81
2023/02/07 07:32:21;;;;;;;22.57;20.47;;;-2.20;99.90;;;;;;4925516;29;20563;-82
2023/02/07 07:34:50;;;;;;;21.20;19.20;;;-2.10;99.90;;;;;;4926910;29;20443;-82
2023/02/07 07:37:17;;;;;;;22.50;19.83;;;-2.10;99.90;;;;;;4927915;29;20436;-81
2023/02/07 07:39:43;;;;;;;22.23;20.03;;;-1.90;99.90;;;;;;4929244;29;21043;-80
2023/02/07 07:42:11;;;;;;;20.73;18.77;;;-1.80;99.90;;;;;;4926193;29;20523;-80
2023/02/07 07:44:53;;;;;;;19.90;18.17;;;-1.60;99.90;;;;;;4918790;29;20448;-80
2023/02/07 07:47:19;;;;;;;19.27;17.57;;;-1.40;99.90;;;;;;4919477;29;20476;-80
2023/02/07 07:49:46;;;;;;;21.37;19.37;;;-1.20;99.90;;;;;;4918337;29;20440;-80
2023/02/07 07:52:15;;;;;;;20.90;19.00;;;-1.10;99.90;;;;;;4920843;29;20463;-80
2023/02/07 07:54:41;;;;;;;21.83;19.63;;;-1.10;99.90;;;;;;4920181;29;20453;-80
2023/02/07 07:57:08;;;;;;;21.17;19.23;;;-1.10;99.90;;;;;;4920057;29;20464;-80
2023/02/07 07:59:35;;;;;;;21.57;19.30;;;-1.00;99.90;;;;;;4916554;29;20539;-80
2023/02/07 08:02:02;;;;;;;20.97;18.97;;;-0.90;99.90;;;;;;4919233;29;20476;-80
2023/02/07 08:04:28;;;;;;;21.20;18.93;;;-0.70;99.90;;;;;;4920448;29;20868;-80
2023/02/07 08:06:56;;;;;;;22.03;19.97;;;-0.50;99.90;;;;;;4919265;29;20973;-79
2023/02/07 08:09:24;;;;;;;21.57;19.57;;;-0.20;99.90;;;;;;4921062;29;20443;-79
2023/02/07 08:11:51;;;;;;;25.37;22.83;;;0.20;99.90;;;;;;4919454;29;20891;-80
2023/02/07 08:14:18;;;;;;;37.20;26.70;;;0.50;99.90;;;;;;4920348;29;20881;-80
2023/02/07 08:16:44;;;;;;;24.67;22.00;;;0.80;99.90;;;;;;4919199;29;20460;-80
2023/02/07 08:19:11;;;;;;;29.40;24.70;;;1.10;99.90;;;;;;4920580;29;20458;-80
2023/02/07 08:21:38;;;;;;;22.87;20.87;;;1.20;99.90;;;;;;4915721;29;20482;-81
2023/02/07 08:24:05;;;;;;;25.03;21.97;;;1.50;99.90;;;;;;4934064;29;20460;-80
2023/02/07 08:26:33;;;;;;;22.80;20.80;;;1.70;99.90;;;;;;4920000;29;21161;-81
2023/02/07 08:29:00;;;;;;;23.50;21.07;;;1.90;99.90;;;;;;4918054;29;20972;-80
2023/02/07 08:31:27;;;;;;;21.73;19.77;;;2.20;99.90;;;;;;4918856;29;20562;-80
2023/02/07 08:33:54;;;;;;;21.70;19.60;;;2.30;99.90;;;;;;4919480;29;20456;-81
2023/02/07 08:36:21;;;;;;;21.37;19.07;;;2.40;99.90;;;;;;4922181;29;20463;-81
2023/02/07 08:38:48;;;;;;;21.23;19.20;;;2.30;99.90;;;;;;4917966;29;20504;-81
2023/02/07 08:41:15;;;;;;;21.00;19.17;;;2.50;99.90;;;;;;4917282;29;20217;-81
2023/02/07 08:43:43;;;;;;;20.57;18.70;;;2.50;99.90;;;;;;4913163;29;20235;-84
2023/02/07 08:46:10;;;;;;;20.53;18.70;;;2.90;99.90;;;;;;4914553;29;20278;-82
2023/02/07 08:48:37;;;;;;;20.77;18.93;;;3.00;99.90;;;;;;4923197;29;20649;-78
2023/02/07 08:51:05;;;;;;;21.37;19.27;;;3.20;99.90;;;;;;4920798;29;20283;-77
2023/02/07 08:53:32;;;;;;;20.37;18.60;;;3.50;99.90;;;;;;4928824;29;20207;-77
2023/02/07 08:55:59;;;;;;;20.90;19.10;;;3.80;99.90;;;;;;4925722;29;20633;-78
2023/02/07 08:58:26;;;;;;;21.00;19.10;;;3.90;99.90;;;;;;4928495;29;20188;-78
2023/02/07 09:00:55;;;;;;;20.40;18.50;;;3.70;99.90;;;;;;4926880;29;20672;-78
2023/02/07 09:03:22;;;;;;;20.40;18.60;;;3.60;99.90;;;;;;4926455;29;20574;-78
2023/02/07 09:05:48;;;;;;;20.53;18.77;;;3.60;99.90;;;;;;4929514;29;20245;-78
2023/02/07 09:08:16;;;;;;;20.90;18.97;;;3.40;99.90;;;;;;4922318;29;20219;-77
2023/02/07 09:10:43;;;;;;;21.23;19.13;;;3.50;99.90;;;;;;4920664;29;20227;-77
2023/02/07 09:13:10;;;;;;;19.77;17.93;;;3.60;99.90;;;;;;4926964;29;20276;-78
2023/02/07 09:15:37;;;;;;;20.03;18.33;;;3.70;99.90;;;;;;4919075;29;20196;-78
2023/02/07 09:18:05;;;;;;;20.37;18.50;;;3.30;99.90;;;;;;4926084;29;20207;-77
2023/02/07 09:20:32;;;;;;;21.37;19.37;;;3.20;99.90;;;;;;4925959;29;20196;-78
2023/02/07 09:25:43;;;;;;;20.50;18.70;;;3.10;99.90;;;;;;4920735;29;20274;-77
2023/02/07 09:28:10;;;;;;;21.47;19.47;;;3.10;99.90;;;;;;4920691;29;20220;-82
2023/02/07 09:30:39;;;;;;;21.63;19.53;;;3.10;99.90;;;;;;4922598;29;20208;-82
2023/02/07 09:33:08;;;;;;;21.43;19.57;;;2.90;99.90;;;;;;4931757;29;20254;-81
2023/02/07 09:35:37;;;;;;;21.17;19.37;;;2.90;99.90;;;;;;4923684;29;20295;-82
2023/02/07 09:38:04;;;;;;;20.70;18.80;;;2.90;99.90;;;;;;4920965;29;20255;-82
2023/02/07 09:40:33;;;;;;;21.37;19.57;;;2.90;99.90;;;;;;4918072;29;20211;-83
2023/02/07 09:43:10;;;;;;;20.30;18.20;;;2.90;99.90;;;;;;4921734;29;20626;-82
2023/02/07 09:45:40;;;;;;;21.45;19.55;;;2.90;99.90;;;;;;4916934;29;20455;-83
2023/02/07 09:48:20;;;;;;;19.80;18.03;;;2.70;99.90;;;;;;4924766;29;20208;-83
2023/02/07 09:50:51;;;;;;;21.10;19.10;;;2.50;99.90;;;;;;4924060;29;20231;-77
2023/02/07 09:53:24;;;;;;;20.40;18.53;;;2.70;99.90;;;;;;4927203;29;20215;-78
2023/02/07 09:55:54;;;;;;;21.20;19.03;;;2.80;99.90;;;;;;4926808;29;20265;-77
2023/02/07 09:58:33;;;;;;;23.00;20.93;;;2.80;99.90;;;;;;4923723;29;20200;-77
2023/02/07 10:01:04;;;;;;;21.40;19.40;;;2.60;99.90;;;;;;4923031;29;20712;-78
2023/02/07 10:03:39;;;;;;;20.83;19.03;;;2.40;99.90;;;;;;4921751;29;20652;-78
2023/02/07 10:06:13;;;;;;;22.13;20.13;;;2.30;99.90;;;;;;4927532;29;20200;-78
2023/02/07 10:08:40;;;;;;;20.30;18.50;;;2.20;99.90;;;;;;4929583;29;20215;-78
2023/02/07 10:11:17;;;;;;;19.93;18.03;;;2.20;99.90;;;;;;4927915;29;20227;-77
2023/02/07 10:13:56;;;;;;;20.07;18.23;;;2.20;99.90;;;;;;4929796;29;20199;-78
2023/02/07 10:16:37;;;;;;;20.53;18.63;;;2.10;99.90;;;;;;4924102;29;20554;-78
2023/02/07 10:19:18;;;;;;;20.63;18.73;;;2.10;99.90;;;;;;4929621;29;20207;-78
2023/02/07 10:21:54;;;;;;;19.53;17.73;;;2.10;99.90;;;;;;4926467;29;20484;-78
2023/02/07 10:24:36;;;;;;;22.03;19.87;;;2.10;99.90;;;;;;4928848;29;20202;-84
2023/02/07 10:27:10;;;;;;;20.30;18.43;;;2.10;99.90;;;;;;4929389;29;20203;-84
2023/02/07 10:29:53;;;;;;;21.00;19.07;;;2.20;99.90;;;;;;4923913;29;20223;-83
2023/02/07 10:32:23;;;;;;;21.77;19.77;;;2.20;99.90;;;;;;4922042;29;20231;-83
2023/02/07 10:34:55;;;;;;;21.63;19.50;;;2.00;99.90;;;;;;4922895;29;20264;-83
2023/02/07 10:37:23;;;;;;;21.33;19.27;;;2.00;99.90;;;;;;4927919;29;20200;-84
2023/02/07 10:39:58;;;;;;;21.77;19.67;;;2.00;99.90;;;;;;4926980;29;20192;-84
2023/02/07 10:42:26;;;;;;;21.07;19.20;;;1.90;99.90;;;;;;4929910;29;20635;-83
2023/02/07 10:44:52;;;;;;;22.30;20.00;;;1.90;99.90;;;;;;4928371;29;20203;-83
2023/02/07 10:47:22;;;;;;;20.53;18.73;;;2.00;99.90;;;;;;4921115;29;20787;-84
2023/02/07 10:49:52;;;;;;;20.57;18.67;;;2.00;99.90;;;;;;4923852;29;20483;-84
2023/02/07 10:52:28;;;;;;;21.27;19.27;;;2.00;99.90;;;;;;4927035;29;20240;-84
2023/02/07 10:54:57;;;;;;;21.23;19.20;;;1.80;99.90;;;;;;4927823;29;20490;-84
2023/02/07 10:57:24;;;;;;;19.77;17.97;;;1.90;99.90;;;;;;4929941;29;20195;-84
2023/02/07 10:59:59;;;;;;;20.87;18.77;;;2.00;99.90;;;;;;4926741;29;20668;-84
2023/02/07 11:02:47;;;;;;;20.97;18.93;;;2.20;99.90;;;;;;4928889;29;20297;-84
2023/02/07 11:05:30;;;;;;;21.87;19.93;;;2.10;99.90;;;;;;4920949;29;20208;-83
2023/02/07 11:07:59;;;;;;;20.73;18.83;;;2.10;99.90;;;;;;4923817;29;20870;-84
2023/02/07 11:10:31;;;;;;;20.97;19.07;;;2.20;99.90;;;;;;4929830;29;20469;-83
2023/02/07 11:12:59;;;;;;;20.10;18.20;;;2.20;99.90;;;;;;4930128;29;20447;-83
2023/02/07 11:15:34;;;;;;;22.27;20.17;;;2.30;99.90;;;;;;4920022;29;20261;-84
2023/02/07 11:18:01;;;;;;;21.50;19.47;;;2.10;99.90;;;;;;4931970;29;20451;-83
2023/02/07 11:20:33;;;;;;;21.13;19.20;;;2.10;99.90;;;;;;4917678;29;20203;-84
2023/02/07 11:23:03;;;;;;;21.17;19.17;;;2.20;99.90;;;;;;4927298;29;20444;-84
2023/02/07 11:25:33;;;;;;;22.33;20.20;;;2.20;99.90;;;;;;4922050;29;20464;-84
2023/02/07 11:27:59;;;;;;;21.43;19.53;;;2.30;99.90;;;;;;4933059;29;20520;-83
2023/02/07 11:30:28;;;;;;;21.87;19.77;;;2.30;99.90;;;;;;4937343;29;20201;-83
2023/02/07 11:32:59;;;;;;;21.83;19.73;;;2.20;99.90;;;;;;4927602;29;20550;-83
2023/02/07 11:35:26;;;;;;;19.63;17.93;;;2.20;99.90;;;;;;4933255;29;21037;-84
2023/02/07 11:38:03;;;;;;;21.40;19.13;;;2.20;99.90;;;;;;4934279;29;20203;-84
2023/02/07 11:40:35;;;;;;;20.73;18.83;;;2.30;99.90;;;;;;4918564;29;20263;-84
2023/02/07 11:43:06;;;;;;;21.93;19.87;;;2.30;99.90;;;;;;4923591;29;20259;-84
2023/02/07 11:45:34;;;;;;;20.63;18.73;;;2.30;99.90;;;;;;4926456;29;20516;-83
2023/02/07 11:48:04;;;;;;;21.30;19.37;;;2.30;99.90;;;;;;4926762;29;20234;-84
2023/02/07 11:50:35;;;;;;;20.73;18.87;;;2.30;99.90;;;;;;4928399;29;20207;-83
2023/02/07 11:53:03;;;;;;;20.67;18.67;;;2.30;99.90;;;;;;4926221;29;20215;-80
2023/02/07 11:55:33;;;;;;;21.30;19.47;;;2.40;99.90;;;;;;4926318;29;20456;-81
2023/02/07 11:58:08;;;;;;;21.50;19.30;;;2.50;99.90;;;;;;4925807;29;20211;-81
2023/02/07 12:00:37;;;;;;;20.47;18.67;;;2.50;99.90;;;;;;4918787;29;20442;-79
2023/02/07 12:03:09;;;;;;;20.63;18.43;;;2.50;99.90;;;;;;4928675;29;20206;-79
2023/02/07 12:05:40;;;;;;;19.37;17.67;;;2.50;99.90;;;;;;4924514;29;20206;-82
2023/02/07 12:08:14;;;;;;;20.97;19.07;;;2.60;99.90;;;;;;4925881;29;20676;-76
2023/02/07 12:10:46;;;;;;;19.53;17.73;;;2.70;99.90;;;;;;4926413;29;20200;-77
2023/02/07 12:13:16;;;;;;;19.70;17.80;;;2.70;99.90;;;;;;4930644;29;20200;-77
2023/02/07 12:15:48;;;;;;;20.40;18.47;;;2.80;99.90;;;;;;4927589;29;20618;-77
2023/02/07 12:18:21;;;;;;;20.03;18.13;;;2.80;99.90;;;;;;4930439;29;20436;-76
2023/02/07 12:20:54;;;;;;;20.00;18.17;;;2.80;99.90;;;;;;4933620;29;20518;-78
2023/02/07 12:23:28;;;;;;;19.97;18.10;;;2.80;99.90;;;;;;4936081;29;20204;-77
2023/02/07 12:26:00;;;;;;;20.77;18.77;;;2.80;99.90;;;;;;4931055;29;20435;-77
2023/02/07 12:28:33;;;;;;;18.90;17.20;;;2.80;99.90;;;;;;4927112;29;20215;-77
2023/02/07 12:31:07;;;;;;;19.97;18.17;;;2.90;99.90;;;;;;4925880;29;20251;-79
2023/02/07 12:33:43;;;;;;;20.13;18.20;;;3.00;99.90;;;;;;4921714;29;20207;-76
2023/02/07 12:36:14;;;;;;;18.23;16.73;;;3.00;99.90;;;;;;4928202;29;20200;-77
2023/02/07 12:38:48;;;;;;;19.67;17.97;;;3.00;99.90;;;;;;4928629;29;20200;-77
2023/02/07 12:41:23;;;;;;;20.70;18.77;;;3.00;99.90;;;;;;4929838;29;20235;-77
2023/02/07 12:43:56;;;;;;;19.97;17.87;;;3.00;99.90;;;;;;4933024;29;20199;-77
2023/02/07 12:46:34;;;;;;;19.60;17.90;;;3.00;99.90;;;;;;4931588;29;20196;-77
2023/02/07 12:49:15;;;;;;;19.07;17.47;;;3.00;99.90;;;;;;4928439;29;20279;-78
2023/02/07 12:51:51;;;;;;;19.97;18.07;;;3.00;99.90;;;;;;4926107;29;20220;-77
2023/02/07 12:54:33;;;;;;;19.43;17.60;;;3.00;99.90;;;;;;4929701;29;20203;-78
2023/02/07 12:57:08;;;;;;;18.30;16.67;;;3.10;99.90;;;;;;4929887;29;20195;-77
2023/02/07 12:59:44;;;;;;;17.97;16.37;;;3.10;99.90;;;;;;4916808;29;20203;-78
2023/02/07 13:02:29;;;;;;;17.90;16.30;;;3.10;99.90;;;;;;4922360;29;20493;-78
2023/02/07 13:05:29;;;;;;;17.73;16.23;;;3.20;99.90;;;;;;4920769;29;20681;-77
2023/02/07 13:08:05;;;;;;;16.87;15.47;;;3.30;99.90;;;;;;4922786;29;20617;-77
2023/02/07 13:10:41;;;;;;;17.93;16.43;;;3.30;99.90;;;;;;4931279;29;20620;-77
2023/02/07 13:13:17;;;;;;;18.73;17.13;;;3.30;99.90;;;;;;4919455;29;20268;-78
2023/02/07 13:15:51;;;;;;;17.53;16.03;;;3.30;99.90;;;;;;4927488;29;20207;-77
2023/02/07 13:18:23;;;;;;;17.30;15.80;;;3.30;99.90;;;;;;4928881;29;20628;-78
2023/02/07 13:20:56;;;;;;;17.13;15.57;;;3.30;99.90;;;;;;4927111;29;20231;-78
2023/02/07 13:23:27;;;;;;;16.73;15.23;;;3.40;99.90;;;;;;4930657;29;20232;-78
2023/02/07 13:25:59;;;;;;;16.23;14.83;;;3.50;99.90;;;;;;4929577;29;20204;-78
2023/02/07 13:28:32;;;;;;;14.03;13.03;;;3.50;99.90;;;;;;4922831;29;20616;-77
2023/02/07 13:31:00;;;;;;;13.90;12.80;;;3.50;99.90;;;;;;4923688;29;20220;-77
2023/02/07 13:33:34;;;;;;;13.47;12.47;;;3.40;99.90;;;;;;4930224;29;20231;-78
2023/02/07 13:36:07;;;;;;;14.10;13.00;;;3.50;99.90;;;;;;4927536;29;20204;-78
2023/02/07 13:38:50;;;;;;;13.37;12.37;;;3.50;99.90;;;;;;4915283;29;20208;-77
2023/02/07 13:41:30;;;;;;;13.97;12.77;;;3.50;99.90;;;;;;4924025;29;20287;-83
2023/02/07 13:44:05;;;;;;;13.50;12.40;;;3.50;99.90;;;;;;4925298;29;20200;-77
2023/02/07 13:46:55;;;;;;;13.50;12.50;;;3.50;99.90;;;;;;4923265;29;20199;-78
2023/02/07 13:49:34;;;;;;;13.23;12.23;;;3.60;99.90;;;;;;4923413;29;20238;-77
2023/02/07 13:52:05;;;;;;;13.83;12.73;;;3.60;99.90;;;;;;4922842;29;20227;-78
2023/02/07 13:54:40;;;;;;;13.27;12.33;;;3.60;99.90;;;;;;4923330;29;20742;-78
2023/02/07 14:00:26;;;;;;;14.07;12.97;;;3.50;99.90;;;;;;4919714;29;20254;-77
2023/02/07 14:02:56;;;;;;;15.13;11.77;;;3.50;99.90;;;;;;4922337;29;20240;-78
2023/02/07 14:05:26;;;;;;;13.33;12.33;;;3.50;99.90;;;;;;4924182;29;20306;-81
2023/02/07 14:08:00;;;;;;;13.13;12.03;;;3.60;99.90;;;;;;4918103;29;20585;-79
2023/02/07 14:10:44;;;;;;;12.80;11.80;;;3.50;99.90;;;;;;4925277;29;20709;-79
2023/02/07 14:13:30;;;;;;;13.33;12.23;;;3.50;99.90;;;;;;4924735;29;20259;-79
2023/02/07 14:16:04;;;;;;;13.63;12.50;;;3.60;99.90;;;;;;4923456;29;20238;-78
2023/02/07 14:18:43;;;;;;;13.70;12.50;;;3.60;99.90;;;;;;4921453;29;20275;-79
2023/02/07 14:21:39;;;;;;;13.77;12.57;;;3.50;99.90;;;;;;4925198;29;20223;-78
2023/02/07 14:24:20;;;;;;;13.60;12.60;;;3.50;99.90;;;;;;4925018;29;20674;-79
2023/02/07 14:26:57;;;;;;;13.80;12.60;;;3.50;99.90;;;;;;4917098;29;20211;-79
2023/02/07 14:30:02;;;;;;;13.83;12.73;;;3.50;99.90;;;;;;4925405;29;20223;-79
2023/02/07 14:32:40;;;;;;;14.10;12.93;;;3.50;99.90;;;;;;4940560;29;20238;-79
2023/02/07 14:35:35;;;;;;;14.17;13.07;;;3.50;99.90;;;;;;4925743;29;20227;-79
2023/02/07 14:38:12;;;;;;;13.73;12.53;;;3.50;99.90;;;;;;4925026;29;20262;-82
2023/02/07 14:40:55;;;;;;;14.07;12.97;;;3.50;99.90;;;;;;4921699;29;20544;-78
2023/02/07 14:43:27;;;;;;;13.97;12.87;;;3.50;99.90;;;;;;4927250;29;20203;-84
2023/02/07 14:46:09;;;;;;;14.10;13.00;;;3.50;99.90;;;;;;4920018;29;20679;-84
2023/02/07 14:48:52;;;;;;;14.10;12.77;;;3.60;99.90;;;;;;4927855;29;20210;-80
2023/02/07 14:51:24;;;;;;;13.60;12.60;;;3.60;99.90;;;;;;4929522;29;20235;-82
2023/02/07 14:54:01;;;;;;;14.40;13.10;;;3.50;99.90;;;;;;4918513;29;20204;-84
2023/02/07 14:56:46;;;;;;;14.63;13.23;;;3.50;99.90;;;;;;4935028;29;20290;-84
2023/02/07 14:59:17;;;;;;;14.30;13.20;;;3.50;99.90;;;;;;4911832;29;20295;-83
2023/02/07 15:01:45;;;;;;;14.17;13.03;;;3.50;99.90;;;;;;4929198;29;20318;-83
2023/02/07 15:04:15;;;;;;;13.80;12.70;;;3.50;99.90;;;;;;4934577;29;20676;-84
2023/02/07 15:06:44;;;;;;;14.17;12.97;;;3.50;99.90;;;;;;4919328;29;20227;-83
2023/02/07 15:09:20;;;;;;;14.23;13.03;;;3.50;99.90;;;;;;4927974;29;20226;-82
2023/02/07 15:11:48;;;;;;;13.73;12.63;;;3.50;99.90;;;;;;4919396;29;20232;-83
2023/02/07 15:14:28;;;;;;;15.27;14.00;;;3.40;99.90;;;;;;4927226;29;20279;-79
2023/02/07 15:16:55;;;;;;;14.33;12.97;;;3.40;99.90;;;;;;4930447;29;20278;-79
2023/02/07 15:19:30;;;;;;;14.93;13.43;;;3.40;99.90;;;;;;4928529;29;20303;-79
2023/02/07 15:22:02;;;;;;;13.77;12.67;;;3.30;99.90;;;;;;4919845;29;20220;-77
2023/02/07 15:24:37;;;;;;;14.50;13.30;;;3.30;99.90;;;;;;4916307;29;20259;-77
2023/02/07 15:27:06;;;;;;;14.47;13.30;;;3.30;99.90;;;;;;4920208;29;20203;-77
2023/02/07 15:29:36;;;;;;;14.30;13.00;;;3.30;99.90;;;;;;4923067;29;20211;-77
2023/02/07 15:32:19;;;;;;;14.90;13.60;;;3.20;99.90;;;;;;4930047;29;20226;-79
2023/02/07 15:34:48;;;;;;;14.53;13.37;;;3.20;99.90;;;;;;4921182;29;20203;-77
2023/02/07 15:37:19;;;;;;;14.83;13.47;;;3.10;99.90;;;;;;4919960;29;20208;-78
2023/02/07 15:39:46;;;;;;;14.77;13.57;;;3.10;99.90;;;;;;4919028;29;20208;-77
2023/02/07 15:42:16;;;;;;;15.30;14.00;;;3.10;99.90;;;;;;4933151;29;20276;-78
2023/02/07 15:44:49;;;;;;;15.73;14.43;;;3.00;99.90;;;;;;4928397;29;20200;-78
2023/02/07 15:47:32;;;;;;;15.67;14.17;;;2.90;99.90;;;;;;4936142;29;20224;-78
2023/02/07 15:50:01;;;;;;;15.07;13.77;;;2.90;99.90;;;;;;4928101;29;20562;-78
2023/02/07 15:52:34;;;;;;;15.60;14.27;;;2.80;99.90;;;;;;4915711;29;20609;-79
2023/02/07 15:55:03;;;;;;;15.47;13.97;;;2.80;99.90;;;;;;4931524;29;20211;-79
2023/02/07 15:57:34;;;;;;;15.70;14.40;;;2.70;99.90;;;;;;4921078;29;20195;-78
2023/02/07 16:00:04;;;;;;;16.10;14.57;;;2.60;99.90;;;;;;4929827;29;20199;-78
2023/02/07 16:02:46;;;;;;;15.80;14.30;;;2.60;99.90;;;;;;4922691;29;20231;-85